createdAt,value
2019-03-01T00:00:21.024Z,11.40
2019-03-01T00:02:47.638Z,10.90
2019-03-01T00:05:14.570Z,10.80
2019-03-01T00:07:41.333Z,10.90
2019-03-01T00:10:07.935Z,11.00
2019-03-01T00:12:34.606Z,11.30
2019-03-01T00:15:01.380Z,11.30
2019-03-01T00:17:28.584Z,10.80
2019-03-01T00:19:55.533Z,10.90
2019-03-01T00:22:22.149Z,10.80
2019-03-01T00:24:48.753Z,11.30
2019-03-01T00:27:15.897Z,11.30
2019-03-01T00:29:42.529Z,11.50
2019-03-01T00:32:09.464Z,11.50
2019-03-01T00:34:36.617Z,11.60
2019-03-01T00:37:03.433Z,11.40
2019-03-01T00:39:30.959Z,11.60
2019-03-01T00:41:57.666Z,11.70
2019-03-01T00:44:24.374Z,11.70
2019-03-01T00:46:51.362Z,11.50
2019-03-01T00:49:18.285Z,11.70
2019-03-01T00:51:44.955Z,11.40
2019-03-01T00:54:11.538Z,11.50
2019-03-01T00:56:38.483Z,11.70
2019-03-01T00:59:05.471Z,11.80
2019-03-01T01:01:32.119Z,11.70
2019-03-01T01:03:58.962Z,11.20
2019-03-01T01:06:25.917Z,11.40
2019-03-01T01:08:52.682Z,11.40
2019-03-01T01:11:20.739Z,11.00
2019-03-01T01:13:47.576Z,11.30
2019-03-01T01:16:14.426Z,11.60
2019-03-01T01:18:41.704Z,11.40
2019-03-01T01:21:08.367Z,11.40
2019-03-01T01:23:35.285Z,11.70
2019-03-01T01:26:02.673Z,11.80
2019-03-01T01:28:29.364Z,11.50
2019-03-01T01:30:55.988Z,11.70
2019-03-01T01:33:23.707Z,11.50
2019-03-01T01:35:50.739Z,11.40
2019-03-01T01:38:17.458Z,11.30
2019-03-01T01:40:45.891Z,11.30
2019-03-01T01:43:12.540Z,11.40
2019-03-01T01:45:39.442Z,11.30
2019-03-01T01:48:06.478Z,11.00
2019-03-01T01:53:27.281Z,11.20
2019-03-01T01:55:54.204Z,11.50
2019-03-01T01:58:20.869Z,11.30
2019-03-01T02:00:47.665Z,11.50
2019-03-01T02:03:14.293Z,11.50
2019-03-01T02:05:41.082Z,11.50
2019-03-01T02:08:08.058Z,11.70
2019-03-01T02:10:34.759Z,11.20
2019-03-01T02:13:01.549Z,11.10
2019-03-01T02:15:28.462Z,11.30
2019-03-01T02:17:55.337Z,11.40
2019-03-01T02:20:22.278Z,11.20
2019-03-01T02:22:48.921Z,11.40
2019-03-01T02:25:15.645Z,11.40
2019-03-01T02:27:42.547Z,11.40
2019-03-01T02:30:09.512Z,11.30
2019-03-01T02:32:36.605Z,11.30
2019-03-01T02:35:03.298Z,11.20
2019-03-01T02:37:30.085Z,11.50
2019-03-01T02:39:56.851Z,11.50
2019-03-01T02:42:23.620Z,11.60
2019-03-01T02:44:50.621Z,11.30
2019-03-01T02:47:17.417Z,11.30
2019-03-01T02:49:44.540Z,11.40
2019-03-01T02:52:11.529Z,11.40
2019-03-01T02:54:38.325Z,11.40
2019-03-01T02:57:05.237Z,11.40
2019-03-01T02:59:31.860Z,11.20
2019-03-01T03:01:58.504Z,11.10
2019-03-01T03:04:25.330Z,11.10
2019-03-01T03:06:52.513Z,11.30
2019-03-01T03:09:19.452Z,11.30
2019-03-01T03:11:46.308Z,11.00
2019-03-01T03:14:13.536Z,11.10
2019-03-01T03:16:40.326Z,10.90
2019-03-01T03:19:07.200Z,10.70
2019-03-01T03:21:34.674Z,10.70
2019-03-01T03:24:01.688Z,10.60
2019-03-01T03:26:28.612Z,10.50
2019-03-01T03:28:55.551Z,10.50
2019-03-01T03:31:22.386Z,10.30
2019-03-01T03:33:49.442Z,10.30
2019-03-01T03:36:16.489Z,10.50
2019-03-01T03:38:43.351Z,10.40
2019-03-01T03:41:10.279Z,10.60
2019-03-01T03:43:37.605Z,10.40
2019-03-01T03:46:04.240Z,10.20
2019-03-01T03:48:31.858Z,10.10
2019-03-01T03:50:58.566Z,10.60
2019-03-01T03:55:57.663Z,10.50
2019-03-01T03:58:24.657Z,10.80
2019-03-01T04:00:51.282Z,10.90
2019-03-01T04:03:18.193Z,11.50
2019-03-01T04:05:45.174Z,11.70
2019-03-01T04:08:11.758Z,11.90
2019-03-01T04:13:16.911Z,12.10
2019-03-01T04:15:47.683Z,12.20
2019-03-01T04:18:21.810Z,12.40
2019-03-01T04:20:54.757Z,12.50
2019-03-01T04:23:31.216Z,12.20
2019-03-01T04:25:58.505Z,12.30
2019-03-01T04:28:26.120Z,12.20
2019-03-01T04:30:57.606Z,12.20
2019-03-01T04:33:36.084Z,12.10
2019-03-01T04:35:54.513Z,12.30
2019-03-01T04:38:25.271Z,12.40
2019-03-01T04:40:53.723Z,12.20
2019-03-01T04:43:22.338Z,12.10
2019-03-01T04:45:50.598Z,12.00
2019-03-01T04:48:23.377Z,11.90
2019-03-01T04:50:52.982Z,12.20
2019-03-01T04:53:20.648Z,12.10
2019-03-01T04:55:48.645Z,12.20
2019-03-01T04:58:16.104Z,12.10
2019-03-01T05:00:43.723Z,12.10
2019-03-01T05:03:10.474Z,12.20
2019-03-01T05:05:37.551Z,12.00
2019-03-01T05:08:04.213Z,11.80
2019-03-01T05:10:34.214Z,12.00
2019-03-01T05:13:01.085Z,12.00
2019-03-01T05:15:33.233Z,11.80
2019-03-01T05:17:59.958Z,11.90
2019-03-01T05:20:26.888Z,12.00
2019-03-01T05:22:53.489Z,12.00
2019-03-01T05:25:20.251Z,11.80
2019-03-01T05:27:47.231Z,11.60
2019-03-01T05:30:14.156Z,11.50
2019-03-01T05:32:40.768Z,11.60
2019-03-01T05:35:07.749Z,11.80
2019-03-01T05:37:34.587Z,12.00
2019-03-01T05:40:01.362Z,11.90
2019-03-01T05:42:28.590Z,11.40
2019-03-01T05:44:55.542Z,11.10
2019-03-01T05:47:22.303Z,11.00
2019-03-01T05:49:49.512Z,11.20
2019-03-01T05:52:16.127Z,11.30
2019-03-01T05:54:42.770Z,11.30
2019-03-01T05:57:09.427Z,11.20
2019-03-01T05:59:36.028Z,11.00
2019-03-01T06:02:02.827Z,11.20
2019-03-01T06:04:30.006Z,11.20
2019-03-01T06:06:56.628Z,10.80
2019-03-01T06:09:23.266Z,10.60
2019-03-01T06:11:50.182Z,10.80
2019-03-01T06:14:20.976Z,10.90
2019-03-01T06:16:47.907Z,10.80
2019-03-01T06:19:14.628Z,10.90
2019-03-01T06:21:41.431Z,10.70
2019-03-01T06:24:08.096Z,10.90
2019-03-01T06:26:37.552Z,11.20
2019-03-01T06:29:04.519Z,11.10
2019-03-01T06:31:31.741Z,11.20
2019-03-01T06:33:58.958Z,10.60
2019-03-01T06:36:25.685Z,10.40
2019-03-01T06:38:52.593Z,10.40
2019-03-01T06:41:19.978Z,10.50
2019-03-01T06:43:48.127Z,10.70
2019-03-01T06:46:14.855Z,11.10
2019-03-01T06:48:42.072Z,11.30
2019-03-01T06:51:08.694Z,11.20
2019-03-01T06:53:35.650Z,11.30
2019-03-01T06:56:02.689Z,11.20
2019-03-01T06:58:29.881Z,11.20
2019-03-01T07:00:56.766Z,11.30
2019-03-01T07:03:23.674Z,11.20
2019-03-01T07:05:53.250Z,11.10
2019-03-01T07:08:20.316Z,11.00
2019-03-01T07:10:50.650Z,11.20
2019-03-01T07:13:18.147Z,10.90
2019-03-01T07:15:45.931Z,11.40
2019-03-01T07:18:12.937Z,12.00
2019-03-01T07:20:41.435Z,12.10
2019-03-01T07:23:08.118Z,12.40
2019-03-01T07:25:37.286Z,12.70
2019-03-01T07:28:05.346Z,12.80
2019-03-01T07:30:35.666Z,13.20
2019-03-01T07:33:06.077Z,13.70
2019-03-01T07:35:35.217Z,13.90
2019-03-01T07:38:02.184Z,14.00
2019-03-01T07:40:29.153Z,14.00
2019-03-01T07:42:59.361Z,14.00
2019-03-01T07:45:28.255Z,13.80
2019-03-01T07:47:54.966Z,13.60
2019-03-01T07:50:27.947Z,14.00
2019-03-01T07:52:55.529Z,14.00
2019-03-01T07:55:36.309Z,14.20
2019-03-01T07:58:03.870Z,14.40
2019-03-01T08:00:32.798Z,14.30
2019-03-01T08:03:01.213Z,14.20
2019-03-01T08:05:28.564Z,14.30
2019-03-01T08:07:59.806Z,14.60
2019-03-01T08:10:28.693Z,14.80
2019-03-01T08:12:56.403Z,14.90
2019-03-01T08:15:26.305Z,15.00
2019-03-01T08:17:53.481Z,15.10
2019-03-01T08:20:24.837Z,15.40
2019-03-01T08:22:56.680Z,15.50
2019-03-01T08:25:24.701Z,15.50
2019-03-01T08:27:51.969Z,15.50
2019-03-01T08:30:22.630Z,15.10
2019-03-01T08:32:50.456Z,14.90
2019-03-01T08:35:17.407Z,15.00
2019-03-01T08:37:45.304Z,15.00
2019-03-01T08:40:15.654Z,15.30
2019-03-01T08:42:43.634Z,15.10
2019-03-01T08:45:15.647Z,15.10
2019-03-01T08:47:43.028Z,15.60
2019-03-01T08:50:15.791Z,15.40
2019-03-01T08:52:45.547Z,15.80
2019-03-01T08:55:12.208Z,16.00
2019-03-01T08:57:44.528Z,16.00
2019-03-01T09:00:14.958Z,16.30
2019-03-01T09:02:41.438Z,16.30
2019-03-01T09:05:09.830Z,16.20
2019-03-01T09:07:37.002Z,16.50
2019-03-01T09:12:35.906Z,16.90
2019-03-01T09:15:04.498Z,16.80
2019-03-01T09:17:50.130Z,17.20
2019-03-01T09:20:19.106Z,17.30
2019-03-01T09:22:45.964Z,16.60
2019-03-01T09:25:12.818Z,16.60
2019-03-01T09:27:39.724Z,16.90
2019-03-01T09:30:06.952Z,17.00
2019-03-01T09:32:34.824Z,16.40
2019-03-01T09:35:04.317Z,16.30
2019-03-01T09:37:32.495Z,16.30
2019-03-01T09:40:05.550Z,16.40
2019-03-01T09:42:27.638Z,16.00
2019-03-01T09:44:54.555Z,16.20
2019-03-01T09:47:21.206Z,16.80
2019-03-01T09:49:49.231Z,16.90
2019-03-01T09:52:16.040Z,16.70
2019-03-01T09:54:42.926Z,16.80
2019-03-01T09:57:12.459Z,16.40
2019-03-01T09:59:38.443Z,16.50
2019-03-01T10:02:05.087Z,16.70
2019-03-01T10:04:33.212Z,16.20
2019-03-01T10:07:00.093Z,16.20
2019-03-01T10:09:27.293Z,16.50
2019-03-01T10:11:54.084Z,17.10
2019-03-01T10:14:21.361Z,16.70
2019-03-01T10:16:49.599Z,17.00
2019-03-01T10:19:16.639Z,17.30
2019-03-01T10:21:43.242Z,17.50
2019-03-01T10:24:10.160Z,17.70
2019-03-01T10:26:37.478Z,17.60
2019-03-01T10:29:04.385Z,17.50
2019-03-01T10:31:31.256Z,17.50
2019-03-01T10:33:58.232Z,17.70
2019-03-01T10:36:25.621Z,17.50
2019-03-01T10:38:52.638Z,17.70
2019-03-01T10:41:19.878Z,17.60
2019-03-01T10:43:46.554Z,17.20
2019-03-01T10:46:13.357Z,17.10
2019-03-01T10:48:41.492Z,17.00
2019-03-01T10:51:08.468Z,17.40
2019-03-01T10:53:35.447Z,17.60
2019-03-01T10:56:02.862Z,17.20
2019-03-01T10:58:29.682Z,17.30
2019-03-01T11:00:56.652Z,17.40
2019-03-01T11:03:24.152Z,17.90
2019-03-01T11:05:52.974Z,17.90
2019-03-01T11:08:19.946Z,17.90
2019-03-01T11:10:46.875Z,17.70
2019-03-01T11:13:13.470Z,17.40
2019-03-01T11:15:40.080Z,17.50
2019-03-01T11:18:07.175Z,17.50
2019-03-01T11:20:33.864Z,17.80
2019-03-01T11:23:01.210Z,17.70
2019-03-01T11:25:28.043Z,17.60
2019-03-01T11:27:55.042Z,17.70
2019-03-01T11:30:21.902Z,17.10
2019-03-01T11:32:48.695Z,17.30
2019-03-01T11:35:15.334Z,17.50
2019-03-01T11:37:41.950Z,17.00
2019-03-01T11:40:09.477Z,17.10
2019-03-01T11:42:36.092Z,17.00
2019-03-01T11:45:02.852Z,17.60
2019-03-01T11:47:29.818Z,17.40
2019-03-01T11:49:56.521Z,17.20
2019-03-01T11:52:23.185Z,17.60
2019-03-01T11:54:49.890Z,17.70
2019-03-01T11:57:16.624Z,17.90
2019-03-01T11:59:43.289Z,17.90
2019-03-01T12:02:10.258Z,18.00
2019-03-01T12:04:36.991Z,17.70
2019-03-01T12:07:03.651Z,17.30
2019-03-01T12:09:30.589Z,17.10
2019-03-01T12:11:57.237Z,17.20
2019-03-01T12:14:23.901Z,17.00
2019-03-01T12:16:50.544Z,17.00
2019-03-01T12:19:17.245Z,16.80
2019-03-01T12:21:43.879Z,17.00
2019-03-01T12:24:10.560Z,17.30
2019-03-01T12:26:37.181Z,17.40
2019-03-01T12:29:03.770Z,17.60
2019-03-01T12:31:30.469Z,17.20
2019-03-01T12:33:57.173Z,17.50
2019-03-01T12:36:23.802Z,17.70
2019-03-01T12:38:50.966Z,17.30
2019-03-01T12:41:17.682Z,17.30
2019-03-01T12:43:44.348Z,17.20
2019-03-01T12:46:11.000Z,16.80
2019-03-01T12:48:37.664Z,17.40
2019-03-01T12:51:04.373Z,17.80
2019-03-01T12:53:31.090Z,17.90
2019-03-01T12:55:57.798Z,17.50
2019-03-01T12:58:24.375Z,17.40
2019-03-01T13:00:51.029Z,16.90
2019-03-01T13:03:17.616Z,16.70
2019-03-01T13:05:44.219Z,16.60
2019-03-01T13:08:12.573Z,16.70
2019-03-01T13:10:40.343Z,17.10
2019-03-01T13:13:08.594Z,17.10
2019-03-01T13:15:35.589Z,17.10
2019-03-01T13:18:03.473Z,17.20
2019-03-01T13:20:30.378Z,17.60
2019-03-01T13:22:57.001Z,17.10
2019-03-01T13:25:25.917Z,16.70
2019-03-01T13:27:52.591Z,17.10
2019-03-01T13:30:20.600Z,16.80
2019-03-01T13:32:47.438Z,16.70
2019-03-01T13:35:15.604Z,16.30
2019-03-01T13:37:42.503Z,16.70
2019-03-01T13:40:09.157Z,16.60
2019-03-01T13:42:35.868Z,16.70
2019-03-01T13:45:02.517Z,16.80
2019-03-01T13:47:29.325Z,17.00
2019-03-01T13:49:56.326Z,16.80
2019-03-01T13:52:26.735Z,16.70
2019-03-01T13:54:52.352Z,16.80
2019-03-01T13:57:19.391Z,16.40
2019-03-01T13:59:46.054Z,16.30
2019-03-01T14:02:12.840Z,16.80
2019-03-01T14:04:40.398Z,17.00
2019-03-01T14:07:08.294Z,17.30
2019-03-01T14:09:35.303Z,17.10
2019-03-01T14:12:02.072Z,16.60
2019-03-01T14:14:29.147Z,17.00
2019-03-01T14:16:56.278Z,16.90
2019-03-01T14:19:23.217Z,17.20
2019-03-01T14:21:51.188Z,17.30
2019-03-01T14:24:17.921Z,16.80
2019-03-01T14:26:44.525Z,16.60
2019-03-01T14:29:12.874Z,16.90
2019-03-01T14:31:42.831Z,16.30
2019-03-01T14:34:11.597Z,16.20
2019-03-01T14:36:39.860Z,16.20
2019-03-01T14:39:06.751Z,16.40
2019-03-01T14:41:35.024Z,16.30
2019-03-01T14:44:01.978Z,15.90
2019-03-01T14:46:35.675Z,16.10
2019-03-01T14:49:02.024Z,16.30
2019-03-01T14:51:28.947Z,16.60
2019-03-01T14:53:55.928Z,16.40
2019-03-01T14:56:24.425Z,16.50
2019-03-01T14:58:52.268Z,16.60
2019-03-01T15:01:18.996Z,17.00
2019-03-01T15:03:45.973Z,16.80
2019-03-01T15:06:15.558Z,16.90
2019-03-01T15:08:44.234Z,16.90
2019-03-01T15:11:10.912Z,16.30
2019-03-01T15:13:38.150Z,16.10
2019-03-01T15:16:06.055Z,15.90
2019-03-01T15:18:33.426Z,15.90
2019-03-01T15:21:02.622Z,15.60
2019-03-01T15:23:28.638Z,15.50
2019-03-01T15:25:55.601Z,15.20
2019-03-01T15:28:22.476Z,15.10
2019-03-01T15:30:49.083Z,15.00
2019-03-01T15:33:15.895Z,14.80
2019-03-01T15:35:42.575Z,14.80
2019-03-01T15:38:10.901Z,15.30
2019-03-01T15:40:38.077Z,15.30
2019-03-01T15:43:04.956Z,15.50
2019-03-01T15:45:31.551Z,15.60
2019-03-01T15:47:58.715Z,15.40
2019-03-01T15:50:27.366Z,15.00
2019-03-01T15:52:54.794Z,15.40
2019-03-01T15:55:30.302Z,15.40
2019-03-01T15:57:57.447Z,15.20
2019-03-01T16:00:25.582Z,14.40
2019-03-01T16:02:55.623Z,14.30
2019-03-01T16:05:22.190Z,14.30
2019-03-01T16:07:49.034Z,14.20
2019-03-01T16:10:16.005Z,14.00
2019-03-01T16:12:42.641Z,13.70
2019-03-01T16:15:09.588Z,13.90
2019-03-01T16:17:36.347Z,13.70
2019-03-01T16:20:03.240Z,13.60
2019-03-01T16:22:30.120Z,13.90
2019-03-01T16:24:56.762Z,13.80
2019-03-01T16:27:25.261Z,13.80
2019-03-01T16:29:52.468Z,13.70
2019-03-01T16:32:19.511Z,13.70
2019-03-01T16:34:46.506Z,14.10
2019-03-01T16:37:13.579Z,14.00
2019-03-01T16:39:40.684Z,14.10
2019-03-01T16:42:09.161Z,13.80
2019-03-01T16:44:36.144Z,13.40
2019-03-01T16:47:03.570Z,13.40
2019-03-01T16:49:32.270Z,13.60
2019-03-01T16:51:59.012Z,13.80
2019-03-01T16:54:26.403Z,13.90
2019-03-01T16:56:53.294Z,13.80
2019-03-01T16:59:21.174Z,13.80
2019-03-01T17:01:48.303Z,14.00
2019-03-01T17:04:15.474Z,13.90
2019-03-01T17:06:45.396Z,13.80
2019-03-01T17:09:15.302Z,13.50
2019-03-01T17:11:41.503Z,13.30
2019-03-01T17:14:08.581Z,13.20
2019-03-01T17:16:35.602Z,13.00
2019-03-01T17:19:02.680Z,12.90
2019-03-01T17:21:33.035Z,13.00
2019-03-01T17:24:01.999Z,12.90
2019-03-01T17:26:32.768Z,12.70
2019-03-01T17:29:05.437Z,12.30
2019-03-01T17:31:34.108Z,12.30
2019-03-01T17:34:04.500Z,12.20
2019-03-01T17:36:35.714Z,12.10
2019-03-01T17:39:05.117Z,12.20
2019-03-01T17:41:36.171Z,12.40
2019-03-01T17:44:14.056Z,12.00
2019-03-01T17:46:42.497Z,11.60
2019-03-01T17:49:09.761Z,11.20
2019-03-01T17:51:39.462Z,11.50
2019-03-01T17:54:10.179Z,11.80
2019-03-01T17:56:38.720Z,11.70
2019-03-01T17:59:08.301Z,11.60
2019-03-01T18:01:40.327Z,11.60
2019-03-01T18:04:15.841Z,11.80
2019-03-01T18:06:42.215Z,11.70
2019-03-01T18:09:13.198Z,11.70
2019-03-01T18:11:56.138Z,11.20
2019-03-01T18:14:29.891Z,10.60
2019-03-01T18:17:00.421Z,11.00
2019-03-01T18:19:27.705Z,11.10
2019-03-01T18:21:57.283Z,10.80
2019-03-01T18:24:29.726Z,10.90
2019-03-01T18:26:58.592Z,10.30
2019-03-01T18:29:25.912Z,10.00
2019-03-01T18:31:55.599Z,10.20
2019-03-01T18:34:29.788Z,10.40
2019-03-01T18:36:55.567Z,10.60
2019-03-01T18:39:23.436Z,10.00
2019-03-01T18:42:02.418Z,10.30
2019-03-01T18:44:47.887Z,10.30
2019-03-01T18:47:20.354Z,10.30
2019-03-01T18:49:51.372Z,10.40
2019-03-01T18:55:07.669Z,10.30
2019-03-01T18:57:39.478Z,10.30
2019-03-01T19:00:07.620Z,10.10
2019-03-01T19:02:37.276Z,9.70
2019-03-01T19:05:04.622Z,9.80
2019-03-01T19:07:34.123Z,9.90
2019-03-01T19:10:01.124Z,9.90
2019-03-01T19:12:28.363Z,9.50
2019-03-01T19:14:55.252Z,9.40
2019-03-01T19:17:22.228Z,8.50
2019-03-01T19:19:49.774Z,8.40
2019-03-01T19:22:16.542Z,8.30
2019-03-01T19:24:46.653Z,8.80
2019-03-01T19:27:15.510Z,8.80
2019-03-01T19:29:40.610Z,8.60
2019-03-01T19:32:07.901Z,8.10
2019-03-01T19:34:59.124Z,8.30
2019-03-01T19:37:26.213Z,8.50
2019-03-01T19:39:53.202Z,8.50
2019-03-01T19:42:19.843Z,8.70
2019-03-01T19:44:47.388Z,8.60
2019-03-01T19:47:15.532Z,8.30
2019-03-01T19:49:45.166Z,8.20
2019-03-01T19:52:12.198Z,8.40
2019-03-01T19:54:39.797Z,7.90
2019-03-01T19:57:06.553Z,8.10
2019-03-01T19:59:33.576Z,8.10
2019-03-01T20:02:00.331Z,8.00
2019-03-01T20:04:28.235Z,7.80
2019-03-01T20:06:55.135Z,7.50
2019-03-01T20:09:22.312Z,7.60
2019-03-01T20:11:49.280Z,7.60
2019-03-01T20:14:16.926Z,8.00
2019-03-01T20:16:44.226Z,7.80
2019-03-01T20:19:12.919Z,7.90
2019-03-01T20:21:41.317Z,7.90
2019-03-01T20:24:10.698Z,7.50
2019-03-01T20:26:38.356Z,7.10
2019-03-01T20:29:07.313Z,7.10
2019-03-01T20:31:36.770Z,6.80
2019-03-01T20:34:03.031Z,7.10
2019-03-01T20:36:30.005Z,7.30
2019-03-01T20:38:56.730Z,7.30
2019-03-01T20:41:23.626Z,7.50
2019-03-01T20:43:50.630Z,7.10
2019-03-01T20:46:18.924Z,7.60
2019-03-01T20:48:46.237Z,7.50
2019-03-01T20:51:15.370Z,7.20
2019-03-01T20:53:45.637Z,7.20
2019-03-01T20:56:13.903Z,7.30
2019-03-01T20:58:41.513Z,7.20
2019-03-01T21:01:08.333Z,7.50
2019-03-01T21:03:35.065Z,7.40
2019-03-01T21:06:04.648Z,6.80
2019-03-01T21:08:30.963Z,6.60
2019-03-01T21:10:57.687Z,6.90
2019-03-01T21:13:24.939Z,7.10
2019-03-01T21:15:53.192Z,7.00
2019-03-01T21:18:20.253Z,6.80
2019-03-01T21:20:47.163Z,7.10
2019-03-01T21:23:15.105Z,7.00
2019-03-01T21:25:42.590Z,7.00
2019-03-01T21:30:42.511Z,7.20
2019-03-01T21:33:09.138Z,7.00
2019-03-01T21:35:36.586Z,6.70
2019-03-01T21:38:04.259Z,7.00
2019-03-01T21:40:31.460Z,6.80
2019-03-01T21:43:00.167Z,7.10
2019-03-01T21:45:27.306Z,7.10
2019-03-01T21:47:53.935Z,7.10
2019-03-01T21:50:20.751Z,6.60
2019-03-01T21:52:47.993Z,6.80
2019-03-01T21:55:14.672Z,6.80
2019-03-01T21:57:41.605Z,6.60
2019-03-01T22:00:08.348Z,6.60
2019-03-01T22:02:35.831Z,6.80
2019-03-01T22:05:03.811Z,6.90
2019-03-01T22:07:33.588Z,6.90
2019-03-01T22:12:44.348Z,6.60
2019-03-01T22:15:12.396Z,6.50
2019-03-01T22:17:39.456Z,6.60
2019-03-01T22:20:08.994Z,6.90
2019-03-01T22:22:37.524Z,6.90
2019-03-01T22:25:04.001Z,6.90
2019-03-01T22:27:31.972Z,6.90
2019-03-01T22:29:58.709Z,6.60
2019-03-01T22:32:25.809Z,6.50
2019-03-01T22:34:53.991Z,6.20
2019-03-01T22:37:20.640Z,6.40
2019-03-01T22:39:48.334Z,6.30
2019-03-01T22:42:15.771Z,6.20
2019-03-01T22:44:43.793Z,6.40
2019-03-01T22:47:10.481Z,6.60
2019-03-01T22:49:37.335Z,6.60
2019-03-01T22:52:04.158Z,6.50
2019-03-01T22:54:30.941Z,6.60
2019-03-01T22:56:58.447Z,6.80
2019-03-01T22:59:25.109Z,6.50
2019-03-01T23:01:52.059Z,6.00
2019-03-01T23:04:18.995Z,5.90
2019-03-01T23:06:47.521Z,5.90
2019-03-01T23:11:59.065Z,6.00
2019-03-01T23:14:27.307Z,6.40
2019-03-01T23:16:55.608Z,6.60
2019-03-01T23:19:22.428Z,6.30
2019-03-01T23:21:49.309Z,5.60
2019-03-01T23:24:16.066Z,6.20
2019-03-01T23:26:43.966Z,6.10
2019-03-01T23:29:10.950Z,5.90
2019-03-01T23:31:38.958Z,5.90
2019-03-01T23:36:40.413Z,5.90
2019-03-01T23:39:08.459Z,6.10
2019-03-01T23:41:35.226Z,5.80
2019-03-01T23:44:02.870Z,5.50
2019-03-01T23:49:27.293Z,6.10
2019-03-01T23:51:54.066Z,6.10
2019-03-01T23:54:20.787Z,6.60
2019-03-01T23:56:47.642Z,6.60
2019-03-01T23:59:14.743Z,6.60
